Terminal Aerodrome Forecast
Issued by NWS La Crosse, WI

Home | Current Version | Previous Version | Text Only | Print | Product List | Glossary On
Versions: 1 2 3 4 5 6 7 8 9 10 11 12 13 14 15 16 17 18 19 20 21 22 23 24 25 26 27 28 29 30
000
FTUS43 KARX 281131
TAFLSE
TAF
KLSE 281131Z 2812/2912 14008KT P6SM OVC080
     FM281800 14007KT P6SM BKN025
     FM290100 13005KT P6SM OVC020
      TEMPO 2908/2912 4SM BR=

USA.gov is the U.S. government's official web portal to all federal, state and local government web resources and services.